sensor_id;sensor_type;location;lat;lon;timestamp;P1;durP1;ratioP1;P2;durP2;ratioP2
11614;SDS011;5863;52.832;4.758;2023-09-08T00:02:02;10.55;;;9.45;;
11614;SDS011;5863;52.832;4.758;2023-09-08T00:04:29;10.43;;;9.30;;
11614;SDS011;5863;52.832;4.758;2023-09-08T00:06:55;13.20;;;10.18;;
11614;SDS011;5863;52.832;4.758;2023-09-08T00:09:22;10.10;;;9.10;;
11614;SDS011;5863;52.832;4.758;2023-09-08T00:11:49;13.00;;;9.65;;
11614;SDS011;5863;52.832;4.758;2023-09-08T00:14:17;11.50;;;9.32;;
11614;SDS011;5863;52.832;4.758;2023-09-08T00:16:43;10.63;;;9.40;;
11614;SDS011;5863;52.832;4.758;2023-09-08T00:19:10;12.50;;;10.00;;
11614;SDS011;5863;52.832;4.758;2023-09-08T00:21:37;11.57;;;9.77;;
11614;SDS011;5863;52.832;4.758;2023-09-08T00:24:04;10.77;;;9.65;;
11614;SDS011;5863;52.832;4.758;2023-09-08T00:26:32;12.82;;;9.25;;
11614;SDS011;5863;52.832;4.758;2023-09-08T00:28:58;11.50;;;9.18;;
11614;SDS011;5863;52.832;4.758;2023-09-08T00:31:26;10.57;;;9.57;;
11614;SDS011;5863;52.832;4.758;2023-09-08T00:33:53;11.02;;;9.90;;
11614;SDS011;5863;52.832;4.758;2023-09-08T00:36:20;10.45;;;9.25;;
11614;SDS011;5863;52.832;4.758;2023-09-08T00:38:46;11.02;;;9.35;;
11614;SDS011;5863;52.832;4.758;2023-09-08T00:41:13;12.10;;;9.63;;
11614;SDS011;5863;52.832;4.758;2023-09-08T00:43:40;9.93;;;8.93;;
11614;SDS011;5863;52.832;4.758;2023-09-08T00:46:06;11.52;;;9.85;;
11614;SDS011;5863;52.832;4.758;2023-09-08T00:48:35;11.88;;;9.15;;
11614;SDS011;5863;52.832;4.758;2023-09-08T00:51:02;10.02;;;9.02;;
11614;SDS011;5863;52.832;4.758;2023-09-08T00:53:30;11.45;;;8.57;;
11614;SDS011;5863;52.832;4.758;2023-09-08T00:55:57;10.52;;;9.23;;
11614;SDS011;5863;52.832;4.758;2023-09-08T00:58:25;10.77;;;9.30;;
11614;SDS011;5863;52.832;4.758;2023-09-08T01:00:52;10.73;;;8.73;;
11614;SDS011;5863;52.832;4.758;2023-09-08T01:03:19;10.77;;;9.65;;
11614;SDS011;5863;52.832;4.758;2023-09-08T01:05:47;10.98;;;9.98;;
11614;SDS011;5863;52.832;4.758;2023-09-08T01:08:15;11.18;;;9.40;;
11614;SDS011;5863;52.832;4.758;2023-09-08T01:10:42;12.05;;;9.95;;
11614;SDS011;5863;52.832;4.758;2023-09-08T01:13:09;12.82;;;10.00;;
11614;SDS011;5863;52.832;4.758;2023-09-08T01:15:36;11.18;;;9.35;;
11614;SDS011;5863;52.832;4.758;2023-09-08T01:18:03;10.55;;;9.48;;
11614;SDS011;5863;52.832;4.758;2023-09-08T01:20:33;11.48;;;9.85;;
11614;SDS011;5863;52.832;4.758;2023-09-08T01:23:17;13.38;;;9.85;;
11614;SDS011;5863;52.832;4.758;2023-09-08T01:25:50;13.50;;;10.00;;
11614;SDS011;5863;52.832;4.758;2023-09-08T01:28:21;12.13;;;10.90;;
11614;SDS011;5863;52.832;4.758;2023-09-08T01:30:48;11.55;;;10.35;;
11614;SDS011;5863;52.832;4.758;2023-09-08T01:33:16;12.02;;;10.55;;
11614;SDS011;5863;52.832;4.758;2023-09-08T01:35:44;11.48;;;10.38;;
11614;SDS011;5863;52.832;4.758;2023-09-08T01:38:11;11.95;;;10.40;;
11614;SDS011;5863;52.832;4.758;2023-09-08T01:40:38;11.55;;;10.45;;
11614;SDS011;5863;52.832;4.758;2023-09-08T01:43:06;13.30;;;11.25;;
11614;SDS011;5863;52.832;4.758;2023-09-08T01:45:32;14.05;;;10.45;;
11614;SDS011;5863;52.832;4.758;2023-09-08T01:47:59;11.32;;;10.15;;
11614;SDS011;5863;52.832;4.758;2023-09-08T01:50:26;13.45;;;9.98;;
11614;SDS011;5863;52.832;4.758;2023-09-08T01:52:52;11.18;;;10.07;;
11614;SDS011;5863;52.832;4.758;2023-09-08T01:55:19;11.70;;;10.50;;
11614;SDS011;5863;52.832;4.758;2023-09-08T01:57:46;11.65;;;10.45;;
11614;SDS011;5863;52.832;4.758;2023-09-08T02:00:14;13.95;;;10.93;;
11614;SDS011;5863;52.832;4.758;2023-09-08T02:02:42;11.98;;;10.82;;
11614;SDS011;5863;52.832;4.758;2023-09-08T02:05:09;11.95;;;10.10;;
11614;SDS011;5863;52.832;4.758;2023-09-08T02:07:35;11.48;;;10.35;;
11614;SDS011;5863;52.832;4.758;2023-09-08T02:10:02;12.52;;;11.13;;
11614;SDS011;5863;52.832;4.758;2023-09-08T02:12:29;12.15;;;10.68;;
11614;SDS011;5863;52.832;4.758;2023-09-08T02:14:56;14.52;;;11.30;;
11614;SDS011;5863;52.832;4.758;2023-09-08T02:17:24;13.65;;;11.15;;
11614;SDS011;5863;52.832;4.758;2023-09-08T02:19:51;12.35;;;11.07;;
11614;SDS011;5863;52.832;4.758;2023-09-08T02:22:18;11.75;;;10.55;;
11614;SDS011;5863;52.832;4.758;2023-09-08T02:24:44;12.80;;;11.10;;
11614;SDS011;5863;52.832;4.758;2023-09-08T02:27:11;12.93;;;11.65;;
11614;SDS011;5863;52.832;4.758;2023-09-08T02:29:38;12.10;;;10.85;;
11614;SDS011;5863;52.832;4.758;2023-09-08T02:32:05;14.02;;;11.43;;
11614;SDS011;5863;52.832;4.758;2023-09-08T02:34:34;11.40;;;10.30;;
11614;SDS011;5863;52.832;4.758;2023-09-08T02:37:02;12.18;;;11.05;;
11614;SDS011;5863;52.832;4.758;2023-09-08T02:39:29;12.45;;;10.52;;
11614;SDS011;5863;52.832;4.758;2023-09-08T02:41:56;12.48;;;11.15;;
11614;SDS011;5863;52.832;4.758;2023-09-08T02:44:23;12.43;;;11.05;;
11614;SDS011;5863;52.832;4.758;2023-09-08T02:46:50;12.77;;;11.48;;
11614;SDS011;5863;52.832;4.758;2023-09-08T02:49:17;13.68;;;11.13;;
11614;SDS011;5863;52.832;4.758;2023-09-08T02:51:45;12.85;;;11.18;;
11614;SDS011;5863;52.832;4.758;2023-09-08T02:54:11;14.38;;;11.57;;
11614;SDS011;5863;52.832;4.758;2023-09-08T02:56:38;13.13;;;11.73;;
11614;SDS011;5863;52.832;4.758;2023-09-08T02:59:05;12.75;;;11.45;;
11614;SDS011;5863;52.832;4.758;2023-09-08T03:01:31;14.80;;;11.25;;
11614;SDS011;5863;52.832;4.758;2023-09-08T03:03:58;12.77;;;11.48;;
11614;SDS011;5863;52.832;4.758;2023-09-08T03:06:25;14.18;;;12.15;;
11614;SDS011;5863;52.832;4.758;2023-09-08T03:08:53;13.02;;;11.73;;
11614;SDS011;5863;52.832;4.758;2023-09-08T03:11:19;14.27;;;11.70;;
11614;SDS011;5863;52.832;4.758;2023-09-08T03:13:46;14.43;;;11.75;;
11614;SDS011;5863;52.832;4.758;2023-09-08T03:16:12;12.65;;;11.45;;
11614;SDS011;5863;52.832;4.758;2023-09-08T03:18:39;13.85;;;11.40;;
11614;SDS011;5863;52.832;4.758;2023-09-08T03:21:06;13.15;;;11.85;;
11614;SDS011;5863;52.832;4.758;2023-09-08T03:23:35;12.23;;;10.93;;
11614;SDS011;5863;52.832;4.758;2023-09-08T03:26:04;13.10;;;11.73;;
11614;SDS011;5863;52.832;4.758;2023-09-08T03:28:31;15.88;;;12.02;;
11614;SDS011;5863;52.832;4.758;2023-09-08T03:30:58;15.32;;;12.27;;
11614;SDS011;5863;52.832;4.758;2023-09-08T03:33:25;13.48;;;10.90;;
11614;SDS011;5863;52.832;4.758;2023-09-08T03:35:52;15.52;;;12.25;;
11614;SDS011;5863;52.832;4.758;2023-09-08T03:38:18;13.65;;;11.65;;
11614;SDS011;5863;52.832;4.758;2023-09-08T03:40:45;12.13;;;10.90;;
11614;SDS011;5863;52.832;4.758;2023-09-08T03:43:13;13.98;;;11.88;;
11614;SDS011;5863;52.832;4.758;2023-09-08T03:45:40;12.38;;;11.18;;
11614;SDS011;5863;52.832;4.758;2023-09-08T03:48:07;13.05;;;11.70;;
11614;SDS011;5863;52.832;4.758;2023-09-08T03:50:34;13.35;;;11.95;;
11614;SDS011;5863;52.832;4.758;2023-09-08T03:53:01;13.48;;;12.13;;
11614;SDS011;5863;52.832;4.758;2023-09-08T03:55:28;14.00;;;12.50;;
11614;SDS011;5863;52.832;4.758;2023-09-08T03:57:55;13.52;;;12.18;;
11614;SDS011;5863;52.832;4.758;2023-09-08T04:00:23;15.82;;;13.70;;
11614;SDS011;5863;52.832;4.758;2023-09-08T04:02:50;15.00;;;12.85;;
11614;SDS011;5863;52.832;4.758;2023-09-08T04:05:17;16.33;;;13.18;;
11614;SDS011;5863;52.832;4.758;2023-09-08T04:07:44;14.48;;;12.95;;
11614;SDS011;5863;52.832;4.758;2023-09-08T04:10:11;14.43;;;12.55;;
11614;SDS011;5863;52.832;4.758;2023-09-08T04:12:38;14.35;;;12.80;;
11614;SDS011;5863;52.832;4.758;2023-09-08T04:15:06;14.25;;;12.30;;
11614;SDS011;5863;52.832;4.758;2023-09-08T04:17:35;14.52;;;12.75;;
11614;SDS011;5863;52.832;4.758;2023-09-08T04:20:02;14.30;;;12.35;;
11614;SDS011;5863;52.832;4.758;2023-09-08T04:22:30;14.15;;;12.65;;
11614;SDS011;5863;52.832;4.758;2023-09-08T04:24:57;12.35;;;11.15;;
11614;SDS011;5863;52.832;4.758;2023-09-08T04:27:24;14.60;;;12.20;;
11614;SDS011;5863;52.832;4.758;2023-09-08T04:29:50;15.60;;;11.95;;
11614;SDS011;5863;52.832;4.758;2023-09-08T04:32:17;15.95;;;13.23;;
11614;SDS011;5863;52.832;4.758;2023-09-08T04:34:45;16.70;;;12.65;;
11614;SDS011;5863;52.832;4.758;2023-09-08T04:37:12;13.05;;;11.55;;
11614;SDS011;5863;52.832;4.758;2023-09-08T04:39:39;14.88;;;13.05;;
11614;SDS011;5863;52.832;4.758;2023-09-08T04:42:06;14.18;;;12.65;;
11614;SDS011;5863;52.832;4.758;2023-09-08T04:44:32;21.08;;;13.95;;
11614;SDS011;5863;52.832;4.758;2023-09-08T04:46:59;17.77;;;13.55;;
11614;SDS011;5863;52.832;4.758;2023-09-08T04:49:26;15.40;;;13.82;;
11614;SDS011;5863;52.832;4.758;2023-09-08T04:51:55;15.50;;;13.73;;
11614;SDS011;5863;52.832;4.758;2023-09-08T04:54:21;14.60;;;13.10;;
11614;SDS011;5863;52.832;4.758;2023-09-08T04:56:51;16.75;;;13.70;;
11614;SDS011;5863;52.832;4.758;2023-09-08T04:59:18;17.60;;;13.75;;
11614;SDS011;5863;52.832;4.758;2023-09-08T05:01:45;15.38;;;13.77;;
11614;SDS011;5863;52.832;4.758;2023-09-08T05:04:11;15.18;;;13.57;;
11614;SDS011;5863;52.832;4.758;2023-09-08T05:06:38;14.48;;;12.95;;
11614;SDS011;5863;52.832;4.758;2023-09-08T05:09:06;16.65;;;14.13;;
11614;SDS011;5863;52.832;4.758;2023-09-08T05:11:33;15.82;;;13.02;;
11614;SDS011;5863;52.832;4.758;2023-09-08T05:13:59;19.10;;;14.15;;
11614;SDS011;5863;52.832;4.758;2023-09-08T05:16:26;17.58;;;14.23;;
11614;SDS011;5863;52.832;4.758;2023-09-08T05:19:04;16.08;;;14.38;;
11614;SDS011;5863;52.832;4.758;2023-09-08T05:21:32;15.68;;;13.93;;
11614;SDS011;5863;52.832;4.758;2023-09-08T05:23:59;16.08;;;14.48;;
11614;SDS011;5863;52.832;4.758;2023-09-08T05:26:28;15.95;;;13.88;;
11614;SDS011;5863;52.832;4.758;2023-09-08T05:28:54;17.80;;;14.90;;
11614;SDS011;5863;52.832;4.758;2023-09-08T05:31:21;15.13;;;13.60;;
11614;SDS011;5863;52.832;4.758;2023-09-08T05:33:48;16.77;;;14.23;;
11614;SDS011;5863;52.832;4.758;2023-09-08T05:36:14;20.98;;;14.07;;
11614;SDS011;5863;52.832;4.758;2023-09-08T05:38:41;16.52;;;13.25;;
11614;SDS011;5863;52.832;4.758;2023-09-08T05:41:08;15.73;;;14.05;;
11614;SDS011;5863;52.832;4.758;2023-09-08T05:43:36;15.07;;;13.45;;
11614;SDS011;5863;52.832;4.758;2023-09-08T05:46:02;15.85;;;14.25;;
11614;SDS011;5863;52.832;4.758;2023-09-08T05:48:29;16.10;;;14.50;;
11614;SDS011;5863;52.832;4.758;2023-09-08T05:50:57;16.23;;;14.52;;
11614;SDS011;5863;52.832;4.758;2023-09-08T05:53:23;15.63;;;13.98;;
11614;SDS011;5863;52.832;4.758;2023-09-08T05:55:50;16.65;;;14.90;;
11614;SDS011;5863;52.832;4.758;2023-09-08T05:58:17;15.50;;;14.00;;
11614;SDS011;5863;52.832;4.758;2023-09-08T06:00:45;15.68;;;13.55;;
11614;SDS011;5863;52.832;4.758;2023-09-08T06:03:12;15.52;;;13.57;;
11614;SDS011;5863;52.832;4.758;2023-09-08T06:05:39;18.45;;;13.98;;
11614;SDS011;5863;52.832;4.758;2023-09-08T06:08:05;16.30;;;13.95;;
11614;SDS011;5863;52.832;4.758;2023-09-08T06:10:32;17.27;;;14.30;;
11614;SDS011;5863;52.832;4.758;2023-09-08T06:12:59;15.55;;;13.55;;
11614;SDS011;5863;52.832;4.758;2023-09-08T06:15:26;14.50;;;13.00;;
11614;SDS011;5863;52.832;4.758;2023-09-08T06:17:54;16.92;;;14.15;;
11614;SDS011;5863;52.832;4.758;2023-09-08T06:20:21;15.13;;;12.98;;
11614;SDS011;5863;52.832;4.758;2023-09-08T06:22:49;16.55;;;13.60;;
11614;SDS011;5863;52.832;4.758;2023-09-08T06:25:16;14.52;;;13.13;;
11614;SDS011;5863;52.832;4.758;2023-09-08T06:27:43;14.98;;;13.35;;
11614;SDS011;5863;52.832;4.758;2023-09-08T06:30:10;16.75;;;13.70;;
11614;SDS011;5863;52.832;4.758;2023-09-08T06:32:38;16.00;;;13.15;;
11614;SDS011;5863;52.832;4.758;2023-09-08T06:35:06;16.58;;;12.80;;
11614;SDS011;5863;52.832;4.758;2023-09-08T06:37:34;17.10;;;12.30;;
11614;SDS011;5863;52.832;4.758;2023-09-08T06:40:03;13.85;;;11.77;;
11614;SDS011;5863;52.832;4.758;2023-09-08T06:42:30;14.30;;;11.73;;
11614;SDS011;5863;52.832;4.758;2023-09-08T06:44:58;16.77;;;11.60;;
11614;SDS011;5863;52.832;4.758;2023-09-08T06:47:25;13.82;;;11.77;;
11614;SDS011;5863;52.832;4.758;2023-09-08T06:49:52;13.38;;;11.60;;
11614;SDS011;5863;52.832;4.758;2023-09-08T06:52:20;12.93;;;11.05;;
11614;SDS011;5863;52.832;4.758;2023-09-08T06:54:46;15.73;;;11.90;;
11614;SDS011;5863;52.832;4.758;2023-09-08T06:57:13;13.07;;;11.70;;
11614;SDS011;5863;52.832;4.758;2023-09-08T06:59:41;13.23;;;11.27;;
11614;SDS011;5863;52.832;4.758;2023-09-08T07:02:07;13.32;;;12.02;;
11614;SDS011;5863;52.832;4.758;2023-09-08T07:04:34;13.07;;;11.70;;
11614;SDS011;5863;52.832;4.758;2023-09-08T07:07:01;13.65;;;12.35;;
11614;SDS011;5863;52.832;4.758;2023-09-08T07:09:33;14.05;;;12.75;;
11614;SDS011;5863;52.832;4.758;2023-09-08T07:12:00;15.63;;;13.93;;
11614;SDS011;5863;52.832;4.758;2023-09-08T07:14:27;14.85;;;13.35;;
11614;SDS011;5863;52.832;4.758;2023-09-08T07:16:53;15.10;;;13.60;;
11614;SDS011;5863;52.832;4.758;2023-09-08T07:19:20;16.10;;;13.73;;
11614;SDS011;5863;52.832;4.758;2023-09-08T07:21:47;15.38;;;13.88;;
11614;SDS011;5863;52.832;4.758;2023-09-08T07:24:13;16.08;;;14.48;;
11614;SDS011;5863;52.832;4.758;2023-09-08T07:26:41;15.40;;;13.90;;
11614;SDS011;5863;52.832;4.758;2023-09-08T07:29:08;17.02;;;15.25;;
11614;SDS011;5863;52.832;4.758;2023-09-08T07:31:35;17.95;;;15.50;;
11614;SDS011;5863;52.832;4.758;2023-09-08T07:34:03;15.93;;;14.20;;
11614;SDS011;5863;52.832;4.758;2023-09-08T07:36:30;16.85;;;14.60;;
11614;SDS011;5863;52.832;4.758;2023-09-08T07:38:56;15.40;;;13.90;;
11614;SDS011;5863;52.832;4.758;2023-09-08T07:41:23;15.38;;;13.75;;
11614;SDS011;5863;52.832;4.758;2023-09-08T07:43:51;14.77;;;13.25;;
11614;SDS011;5863;52.832;4.758;2023-09-08T07:46:18;14.98;;;13.07;;
11614;SDS011;5863;52.832;4.758;2023-09-08T07:48:44;14.98;;;12.95;;
11614;SDS011;5863;52.832;4.758;2023-09-08T07:51:11;15.40;;;13.68;;
11614;SDS011;5863;52.832;4.758;2023-09-08T07:53:38;14.90;;;13.40;;
11614;SDS011;5863;52.832;4.758;2023-09-08T07:56:05;15.48;;;13.27;;
11614;SDS011;5863;52.832;4.758;2023-09-08T07:58:32;14.35;;;12.95;;
11614;SDS011;5863;52.832;4.758;2023-09-08T08:01:00;14.93;;;13.32;;
11614;SDS011;5863;52.832;4.758;2023-09-08T08:03:26;16.23;;;13.90;;
11614;SDS011;5863;52.832;4.758;2023-09-08T08:05:53;15.38;;;13.80;;
11614;SDS011;5863;52.832;4.758;2023-09-08T08:08:20;13.90;;;12.23;;
11614;SDS011;5863;52.832;4.758;2023-09-08T08:10:47;18.08;;;13.10;;
11614;SDS011;5863;52.832;4.758;2023-09-08T08:13:13;15.32;;;13.73;;
11614;SDS011;5863;52.832;4.758;2023-09-08T08:15:41;15.48;;;13.80;;
11614;SDS011;5863;52.832;4.758;2023-09-08T08:18:09;15.88;;;13.77;;
11614;SDS011;5863;52.832;4.758;2023-09-08T08:20:36;17.45;;;14.05;;
11614;SDS011;5863;52.832;4.758;2023-09-08T08:23:03;15.88;;;14.30;;
11614;SDS011;5863;52.832;4.758;2023-09-08T08:25:30;16.80;;;14.98;;
11614;SDS011;5863;52.832;4.758;2023-09-08T08:27:57;17.90;;;14.90;;
11614;SDS011;5863;52.832;4.758;2023-09-08T08:30:26;16.55;;;14.35;;
11614;SDS011;5863;52.832;4.758;2023-09-08T08:32:53;16.00;;;14.35;;
11614;SDS011;5863;52.832;4.758;2023-09-08T08:35:21;16.88;;;15.18;;
11614;SDS011;5863;52.832;4.758;2023-09-08T08:37:48;16.58;;;14.88;;
11614;SDS011;5863;52.832;4.758;2023-09-08T08:40:15;17.25;;;14.75;;
11614;SDS011;5863;52.832;4.758;2023-09-08T08:42:41;17.95;;;14.98;;
11614;SDS011;5863;52.832;4.758;2023-09-08T08:45:09;16.98;;;15.18;;
11614;SDS011;5863;52.832;4.758;2023-09-08T08:47:36;20.63;;;16.27;;
11614;SDS011;5863;52.832;4.758;2023-09-08T08:50:03;18.58;;;14.60;;
11614;SDS011;5863;52.832;4.758;2023-09-08T08:52:36;21.05;;;14.93;;
11614;SDS011;5863;52.832;4.758;2023-09-08T08:55:04;20.58;;;17.02;;
11614;SDS011;5863;52.832;4.758;2023-09-08T08:57:31;16.98;;;15.27;;
11614;SDS011;5863;52.832;4.758;2023-09-08T08:59:58;20.05;;;17.70;;
11614;SDS011;5863;52.832;4.758;2023-09-08T09:02:26;19.88;;;16.15;;
11614;SDS011;5863;52.832;4.758;2023-09-08T09:04:55;17.73;;;15.75;;
11614;SDS011;5863;52.832;4.758;2023-09-08T09:07:22;17.58;;;15.48;;
11614;SDS011;5863;52.832;4.758;2023-09-08T09:09:51;16.60;;;14.88;;
11614;SDS011;5863;52.832;4.758;2023-09-08T09:12:18;15.65;;;13.82;;
11614;SDS011;5863;52.832;4.758;2023-09-08T09:14:46;20.13;;;15.40;;
11614;SDS011;5863;52.832;4.758;2023-09-08T09:17:14;15.90;;;14.30;;
11614;SDS011;5863;52.832;4.758;2023-09-08T09:19:41;20.73;;;18.63;;
11614;SDS011;5863;52.832;4.758;2023-09-08T09:22:07;18.92;;;15.70;;
11614;SDS011;5863;52.832;4.758;2023-09-08T09:24:35;20.48;;;17.70;;
11614;SDS011;5863;52.832;4.758;2023-09-08T09:27:07;18.45;;;16.48;;
11614;SDS011;5863;52.832;4.758;2023-09-08T09:29:34;21.25;;;17.73;;
11614;SDS011;5863;52.832;4.758;2023-09-08T09:32:11;20.45;;;15.73;;
11614;SDS011;5863;52.832;4.758;2023-09-08T09:34:42;20.10;;;15.68;;
11614;SDS011;5863;52.832;4.758;2023-09-08T09:37:14;21.38;;;15.57;;
11614;SDS011;5863;52.832;4.758;2023-09-08T09:39:41;17.65;;;15.85;;
11614;SDS011;5863;52.832;4.758;2023-09-08T09:42:09;17.90;;;15.90;;
11614;SDS011;5863;52.832;4.758;2023-09-08T09:44:36;18.58;;;16.17;;
11614;SDS011;5863;52.832;4.758;2023-09-08T09:47:03;20.15;;;16.65;;
11614;SDS011;5863;52.832;4.758;2023-09-08T09:49:30;20.35;;;16.20;;
11614;SDS011;5863;52.832;4.758;2023-09-08T09:51:57;17.63;;;15.82;;
11614;SDS011;5863;52.832;4.758;2023-09-08T09:54:24;20.95;;;16.85;;
11614;SDS011;5863;52.832;4.758;2023-09-08T09:56:51;20.25;;;18.05;;
11614;SDS011;5863;52.832;4.758;2023-09-08T09:59:20;22.10;;;18.25;;
11614;SDS011;5863;52.832;4.758;2023-09-08T10:01:50;18.70;;;16.40;;
11614;SDS011;5863;52.832;4.758;2023-09-08T10:04:19;16.92;;;14.30;;
11614;SDS011;5863;52.832;4.758;2023-09-08T10:06:46;22.50;;;18.25;;
11614;SDS011;5863;52.832;4.758;2023-09-08T10:09:13;19.15;;;17.15;;
11614;SDS011;5863;52.832;4.758;2023-09-08T10:11:41;20.27;;;16.35;;
11614;SDS011;5863;52.832;4.758;2023-09-08T10:14:13;23.80;;;16.55;;
11614;SDS011;5863;52.832;4.758;2023-09-08T10:16:43;18.00;;;15.85;;
11614;SDS011;5863;52.832;4.758;2023-09-08T10:19:14;21.95;;;16.80;;
11614;SDS011;5863;52.832;4.758;2023-09-08T10:21:44;19.90;;;16.65;;
11614;SDS011;5863;52.832;4.758;2023-09-08T10:24:13;24.30;;;19.63;;
11614;SDS011;5863;52.832;4.758;2023-09-08T10:26:43;19.92;;;17.90;;
11614;SDS011;5863;52.832;4.758;2023-09-08T10:29:11;21.55;;;18.95;;
11614;SDS011;5863;52.832;4.758;2023-09-08T10:31:39;18.13;;;16.23;;
11614;SDS011;5863;52.832;4.758;2023-09-08T10:34:07;25.38;;;21.10;;
11614;SDS011;5863;52.832;4.758;2023-09-08T10:36:35;26.27;;;20.23;;
11614;SDS011;5863;52.832;4.758;2023-09-08T10:44:57;24.08;;;19.98;;
11614;SDS011;5863;52.832;4.758;2023-09-08T10:47:31;24.20;;;21.15;;
11614;SDS011;5863;52.832;4.758;2023-09-08T10:50:02;25.00;;;21.83;;
11614;SDS011;5863;52.832;4.758;2023-09-08T10:52:30;27.75;;;24.00;;
11614;SDS011;5863;52.832;4.758;2023-09-08T10:55:00;28.02;;;22.25;;
11614;SDS011;5863;52.832;4.758;2023-09-08T10:57:27;31.02;;;25.60;;
11614;SDS011;5863;52.832;4.758;2023-09-08T10:59:56;29.13;;;24.13;;
11614;SDS011;5863;52.832;4.758;2023-09-08T11:02:32;23.48;;;20.98;;
11614;SDS011;5863;52.832;4.758;2023-09-08T11:05:01;29.02;;;24.42;;
11614;SDS011;5863;52.832;4.758;2023-09-08T11:07:29;28.90;;;24.92;;
11614;SDS011;5863;52.832;4.758;2023-09-08T11:09:56;32.55;;;26.50;;
11614;SDS011;5863;52.832;4.758;2023-09-08T11:12:25;27.20;;;23.23;;
11614;SDS011;5863;52.832;4.758;2023-09-08T11:14:52;30.50;;;27.02;;
11614;SDS011;5863;52.832;4.758;2023-09-08T11:17:19;28.92;;;24.95;;
11614;SDS011;5863;52.832;4.758;2023-09-08T11:19:46;28.05;;;23.52;;
11614;SDS011;5863;52.832;4.758;2023-09-08T11:22:16;26.10;;;22.63;;
11614;SDS011;5863;52.832;4.758;2023-09-08T11:24:43;31.25;;;25.70;;
11614;SDS011;5863;52.832;4.758;2023-09-08T11:27:10;31.90;;;25.65;;
11614;SDS011;5863;52.832;4.758;2023-09-08T11:29:37;31.33;;;25.45;;
11614;SDS011;5863;52.832;4.758;2023-09-08T11:32:05;28.10;;;24.55;;
11614;SDS011;5863;52.832;4.758;2023-09-08T11:34:33;29.10;;;25.98;;
11614;SDS011;5863;52.832;4.758;2023-09-08T11:37:00;31.10;;;26.60;;
11614;SDS011;5863;52.832;4.758;2023-09-08T11:39:32;27.25;;;24.00;;
11614;SDS011;5863;52.832;4.758;2023-09-08T11:42:03;34.88;;;26.85;;
11614;SDS011;5863;52.832;4.758;2023-09-08T11:44:29;30.17;;;24.70;;
11614;SDS011;5863;52.832;4.758;2023-09-08T11:46:56;34.45;;;28.02;;
11614;SDS011;5863;52.832;4.758;2023-09-08T11:49:24;32.03;;;27.13;;
11614;SDS011;5863;52.832;4.758;2023-09-08T11:51:51;31.00;;;27.35;;
11614;SDS011;5863;52.832;4.758;2023-09-08T11:54:18;34.45;;;28.35;;
11614;SDS011;5863;52.832;4.758;2023-09-08T11:56:46;30.50;;;25.63;;
11614;SDS011;5863;52.832;4.758;2023-09-08T11:59:13;31.92;;;26.00;;
11614;SDS011;5863;52.832;4.758;2023-09-08T12:01:39;31.40;;;26.65;;
11614;SDS011;5863;52.832;4.758;2023-09-08T12:04:06;29.83;;;26.45;;
11614;SDS011;5863;52.832;4.758;2023-09-08T12:06:44;26.38;;;23.58;;
11614;SDS011;5863;52.832;4.758;2023-09-08T12:09:11;29.75;;;25.13;;
11614;SDS011;5863;52.832;4.758;2023-09-08T12:11:38;32.28;;;26.73;;
11614;SDS011;5863;52.832;4.758;2023-09-08T12:14:09;29.02;;;24.70;;
11614;SDS011;5863;52.832;4.758;2023-09-08T12:16:37;28.63;;;24.95;;
11614;SDS011;5863;52.832;4.758;2023-09-08T12:19:04;33.17;;;27.42;;
11614;SDS011;5863;52.832;4.758;2023-09-08T12:21:31;30.30;;;27.00;;
11614;SDS011;5863;52.832;4.758;2023-09-08T12:23:57;27.65;;;23.30;;
11614;SDS011;5863;52.832;4.758;2023-09-08T12:26:24;28.48;;;24.35;;
11614;SDS011;5863;52.832;4.758;2023-09-08T12:28:51;31.38;;;26.17;;
11614;SDS011;5863;52.832;4.758;2023-09-08T12:31:19;27.80;;;23.70;;
11614;SDS011;5863;52.832;4.758;2023-09-08T12:33:46;25.33;;;22.50;;
11614;SDS011;5863;52.832;4.758;2023-09-08T12:36:13;31.90;;;24.60;;
11614;SDS011;5863;52.832;4.758;2023-09-08T12:38:40;31.30;;;25.00;;
11614;SDS011;5863;52.832;4.758;2023-09-08T12:41:07;23.63;;;21.10;;
11614;SDS011;5863;52.832;4.758;2023-09-08T12:43:34;30.23;;;23.90;;
11614;SDS011;5863;52.832;4.758;2023-09-08T12:46:00;31.67;;;24.60;;
11614;SDS011;5863;52.832;4.758;2023-09-08T12:48:28;28.40;;;24.52;;
11614;SDS011;5863;52.832;4.758;2023-09-08T12:50:55;25.75;;;23.02;;
11614;SDS011;5863;52.832;4.758;2023-09-08T12:53:22;23.77;;;21.27;;
11614;SDS011;5863;52.832;4.758;2023-09-08T12:55:49;29.05;;;24.13;;
11614;SDS011;5863;52.832;4.758;2023-09-08T12:58:16;28.25;;;23.38;;
11614;SDS011;5863;52.832;4.758;2023-09-08T13:00:43;30.92;;;25.83;;
11614;SDS011;5863;52.832;4.758;2023-09-08T13:03:10;26.27;;;22.58;;
11614;SDS011;5863;52.832;4.758;2023-09-08T13:05:38;28.05;;;23.17;;
11614;SDS011;5863;52.832;4.758;2023-09-08T13:08:06;24.92;;;22.23;;
11614;SDS011;5863;52.832;4.758;2023-09-08T13:10:32;26.02;;;21.60;;
11614;SDS011;5863;52.832;4.758;2023-09-08T13:12:59;27.13;;;23.20;;
11614;SDS011;5863;52.832;4.758;2023-09-08T13:15:26;26.73;;;22.30;;
11614;SDS011;5863;52.832;4.758;2023-09-08T13:17:52;35.75;;;24.05;;
11614;SDS011;5863;52.832;4.758;2023-09-08T13:20:19;24.85;;;22.17;;
11614;SDS011;5863;52.832;4.758;2023-09-08T13:22:47;29.40;;;23.02;;
11614;SDS011;5863;52.832;4.758;2023-09-08T13:25:13;24.90;;;21.30;;
11614;SDS011;5863;52.832;4.758;2023-09-08T13:27:40;24.33;;;21.17;;
11614;SDS011;5863;52.832;4.758;2023-09-08T13:30:08;20.90;;;18.50;;
11614;SDS011;5863;52.832;4.758;2023-09-08T13:32:35;23.55;;;20.40;;
11614;SDS011;5863;52.832;4.758;2023-09-08T13:35:02;22.38;;;18.13;;
11614;SDS011;5863;52.832;4.758;2023-09-08T13:37:29;19.00;;;16.27;;
11614;SDS011;5863;52.832;4.758;2023-09-08T13:39:57;18.92;;;16.45;;
11614;SDS011;5863;52.832;4.758;2023-09-08T13:42:24;22.83;;;18.73;;
11614;SDS011;5863;52.832;4.758;2023-09-08T13:44:51;17.65;;;15.70;;
11614;SDS011;5863;52.832;4.758;2023-09-08T13:47:20;18.08;;;16.17;;
11614;SDS011;5863;52.832;4.758;2023-09-08T13:49:46;19.67;;;17.50;;
11614;SDS011;5863;52.832;4.758;2023-09-08T13:52:13;24.73;;;19.10;;
11614;SDS011;5863;52.832;4.758;2023-09-08T13:54:40;19.10;;;16.25;;
11614;SDS011;5863;52.832;4.758;2023-09-08T13:57:08;21.20;;;15.27;;
11614;SDS011;5863;52.832;4.758;2023-09-08T13:59:34;14.93;;;13.32;;
11614;SDS011;5863;52.832;4.758;2023-09-08T14:02:01;14.25;;;12.82;;
11614;SDS011;5863;52.832;4.758;2023-09-08T14:04:29;13.48;;;12.13;;
11614;SDS011;5863;52.832;4.758;2023-09-08T14:06:56;13.68;;;11.98;;
11614;SDS011;5863;52.832;4.758;2023-09-08T14:09:22;21.95;;;13.88;;
11614;SDS011;5863;52.832;4.758;2023-09-08T14:11:50;14.43;;;11.88;;
11614;SDS011;5863;52.832;4.758;2023-09-08T14:14:18;15.25;;;13.13;;
11614;SDS011;5863;52.832;4.758;2023-09-08T14:16:46;14.75;;;12.20;;
11614;SDS011;5863;52.832;4.758;2023-09-08T14:19:13;12.65;;;11.40;;
11614;SDS011;5863;52.832;4.758;2023-09-08T14:21:39;14.15;;;12.10;;
11614;SDS011;5863;52.832;4.758;2023-09-08T14:24:06;18.63;;;11.98;;
11614;SDS011;5863;52.832;4.758;2023-09-08T14:26:33;12.82;;;11.05;;
11614;SDS011;5863;52.832;4.758;2023-09-08T14:29:00;14.75;;;12.05;;
11614;SDS011;5863;52.832;4.758;2023-09-08T14:31:28;12.27;;;10.13;;
11614;SDS011;5863;52.832;4.758;2023-09-08T14:33:55;14.32;;;10.48;;
11614;SDS011;5863;52.832;4.758;2023-09-08T14:36:22;13.30;;;10.10;;
11614;SDS011;5863;52.832;4.758;2023-09-08T14:38:49;11.70;;;10.40;;
11614;SDS011;5863;52.832;4.758;2023-09-08T14:41:15;12.18;;;9.88;;
11614;SDS011;5863;52.832;4.758;2023-09-08T14:43:42;11.43;;;9.10;;